21°C Temp
15°C Dewpoint
69% Humidity
Temperature
14 KM/H
9 MPH
8 KTS
40°
North East

Wind Speed
Mostly Scattered
Clouds
Pressure 1019.92 (hPa) - 30.12 (in)
Visibility 6.2 (mi) - 10.0 (km)

Current Conditions
EGCN
Location 28(km)
Metar :EGCN 091620Z 04008KT 9999 SCT020 21/15 Q1020
Sun 9th August 17:20 pm

Airport
  Metar Aviation API Data Provided by https://www.checkwx.com/ PHP scripts by weather34.com ©2020